Flight Track Log - Related Links

Times and Time Zones

All times are in EDT time to prevent confusion due to time zone crossing. See the N101MA flight status page for this flight to view local times or setup timezone preferences in your user account.

Time Position Orientation Groundspeed Altitude Reporting Facility
EDT Latitude Longitude Course Direction KTS MPH feet Rate Location/Type
Sun 07:40:17 PM 36.8806 -76.2203 222° Southwest 102 117 400  Level Washington Center
Sun 07:41:30 PM 36.8531 -76.2511 222° Southwest 114 131 1,200 627 Climbing Washington Center
Sun 07:42:31 PM 36.8614 -76.2878 286° West 119 137 1,800 574 Climbing Washington Center
Sun 07:43:25 PM 36.8925 -76.2828 North 137 158 2,300 595 Climbing Washington Center
Sun 07:44:32 PM 36.9367 -76.2597 23° Northeast 139 160 3,000 656 Climbing Washington Center
Sun 07:45:33 PM 36.9719 -76.2444 19° North 139 160 3,700 650 Climbing Washington Center
Sun 07:46:32 PM 37.0075 -76.2292 19° North 136 157 4,300 650 Climbing Washington Center
Sun 07:47:33 PM 37.0431 -76.2111 22° Northeast 138 159 5,000 590 Climbing Washington Center
Sun 07:48:34 PM 37.0767 -76.1958 20° North 141 162 5,500 541 Climbing Washington Center
Sun 07:49:35 PM 37.1164 -76.1806 17° North 143 165 6,100 563 Climbing Washington Center
Sun 07:50:42 PM 37.1603 -76.1600 20° North 150 173 6,700 454 Climbing Washington Center
Sun 07:51:34 PM 37.1978 -76.1447 18° North 153 176 7,000 189 Climbing Washington Center
Sun 07:52:49 PM 37.2606 -76.1164 20° North 184 212 7,100 44 Climbing Washington Center
Sun 07:53:50 PM 37.3067 -76.0983 17° North 198 228 7,100  Level Washington Center
Sun 07:54:50 PM 37.3547 -76.0753 21° North 193 222 7,100  Level Washington Center
Sun 07:55:48 PM 37.4047 -76.0547 18° North 188 216 7,100 -50 Level Washington Center
Sun 07:56:49 PM 37.4550 -76.0314 20° North 183 211 7,000  Descending Washington Center
Sun 07:57:49 PM 37.5050 -76.0106 18° North 188 216 7,100  Climbing Washington Center
Sun 07:58:50 PM 37.5531 -75.9875 21° North 188 216 7,000 -50 Descending Washington Center
Sun 07:59:49 PM 37.6033 -75.9667 18° North 188 216 7,000  Level Washington Center
Sun 08:00:50 PM 37.6514 -75.9356 27° Northeast 188 216 7,000  Level Washington Center
Sun 08:01:50 PM 37.6972 -75.9119 22° Northeast 188 216 7,000 51 Level Washington Center
Sun 08:02:48 PM 37.7475 -75.8756 30° Northeast 193 222 7,100  Climbing Washington Center
Sun 08:03:49 PM 37.7892 -75.8519 24° Northeast 193 222 7,000 -50 Descending Washington Center
Sun 08:04:49 PM 37.8289 -75.8231 30° Northeast 188 216 7,000  Level Washington Center
Sun 08:05:50 PM 37.8894 -75.7892 24° Northeast 188 216 7,000  Level Washington Center
Sun 08:06:50 PM 37.9375 -75.7631 23° Northeast 188 216 7,000  Level Washington Center
Sun 08:07:48 PM 37.9833 -75.7339 27° Northeast 188 216 7,000  Level Washington Center
Sun 08:08:48 PM 38.0333 -75.7050 24° Northeast 188 216 7,000  Level Washington Center
Sun 08:09:50 PM 38.0772 -75.6708 31° Northeast 188 216 7,000  Level Washington Center
Sun 08:10:50 PM 38.1253 -75.6444 23° Northeast 183 211 7,000  Level Washington Center
Sun 08:11:48 PM 38.1711 -75.6156 26° Northeast 183 211 7,000  Level Washington Center
Sun 08:12:48 PM 38.2189 -75.5864 26° Northeast 183 211 7,000  Level Washington Center
Sun 08:13:50 PM 38.2669 -75.5547 27° Northeast 183 211 7,000  Level Washington Center
Sun 08:14:51 PM 38.3192 -75.5231 25° Northeast 183 211 7,000  Level Washington Center
Sun 08:15:49 PM 38.3692 -75.5069 14° North 189 217 7,000  Level Washington Center
Sun 08:16:49 PM 38.4169 -75.5094 358° North 184 212 7,000  Level Washington Center
Sun 08:17:50 PM 38.4692 -75.5094 360° North 178 205 7,000  Level Washington Center
Sun 08:18:48 PM 38.5192 -75.5094 360° North 178 205 7,000  Level Washington Center
Sun 08:19:49 PM 38.5692 -75.5094 360° North 178 205 7,000  Level Washington Center
Sun 08:20:50 PM 38.6192 -75.5094 360° North 178 205 7,000 -202 Level Washington Center
Sun 08:21:48 PM 38.6736 -75.5119 358° North 183 211 6,600 -559 Descending Washington Center
Sun 08:22:48 PM 38.7278 -75.5092 North 183 211 5,900 -750 Descending Washington Center
Sun 08:23:48 PM 38.7861 -75.5117 358° North 195 224 5,100 -446 Descending Washington Center
Sun 08:24:49 PM 38.8383 -75.5117 360° North 195 224 5,000  Descending Washington Center
Sun 08:25:50 PM 38.8861 -75.5117 360° North 184 212 5,100  Climbing Washington Center
Sun 08:27:00 PM 36.9483 -76.1855 13° North  Level FlightAware Approximate
Sun 08:32:41 PM 39.2000 -75.4333 North 153 176 5,000  Level Philadelphia TRACON
Sun 08:33:47 PM 39.2500 -75.4333 360° North 144 166 5,100 48 Climbing Philadelphia TRACON
Sun 08:34:00 PM 37.2544 -76.0277 349° North  Level Estimated
Sun 08:34:47 PM 39.2833 -75.4500 339° North 168 193 5,100  Level Philadelphia TRACON
Sun 08:35:00 PM 37.2981 -76.0050 348° North  Level Estimated
Sun 08:35:47 PM 39.3333 -75.4667 346° North 173 199 5,100  Level Philadelphia TRACON
Sun 08:36:00 PM 37.3448 -75.9952 North  Level FlightAware Approximate
Sun 08:36:41 PM 39.3833 -75.4833 346° North 179 206 5,100  Level Philadelphia TRACON
Sun 08:37:00 PM 37.3884 -75.9724 352° North  Level Estimated
Sun 08:37:41 PM 39.4333 -75.5000 346° North 175 201 5,000  Level Philadelphia TRACON
Sun 08:38:00 PM 37.4353 -75.9650 North  Level FlightAware Approximate
Sun 08:38:41 PM 39.4667 -75.5167 339° North 177 204 5,000  Level Philadelphia TRACON
Sun 08:39:41 PM 39.5167 -75.5333 346° North 172 198 5,100 48 Climbing Philadelphia TRACON
Sun 08:40:47 PM 39.5667 -75.5500 346° North 168 193 5,100  Level Philadelphia TRACON
Sun 08:42:00 PM 39.6224 -75.5778 339° North  Level FlightAware Approximate
Sun 08:42:42 PM 39.6500 -75.5833 339° North 167 192 5,100  Level Philadelphia TRACON
Sun 08:43:41 PM 39.7000 -75.6000 346° North 165 190 5,000 -303 Descending Philadelphia TRACON
Sun 08:44:41 PM 39.7500 -75.6167 346° North 185 213 4,500 -496 Descending Philadelphia TRACON
Sun 08:45:42 PM 39.8000 -75.6333 346° North 192 221 4,000 -190 Descending Philadelphia TRACON
Sun 08:46:47 PM 39.8500 -75.6500 346° North 177 204 4,100 48 Climbing Philadelphia TRACON
Sun 08:47:47 PM 39.9000 -75.6667 346° North 167 192 4,100  Level Philadelphia TRACON
Sun 08:48:53 PM 39.9500 -75.6333 27° Northeast 190 219 4,100  Level Philadelphia TRACON
Sun 08:49:53 PM 39.9833 -75.5833 49° Northeast 193 222 4,100  Level Philadelphia TRACON
Sun 08:50:48 PM 40.0167 -75.5333 49° Northeast 193 222 4,100 -52 Level Philadelphia TRACON
Sun 08:51:48 PM 40.0500 -75.4833 49° Northeast 193 222 4,000  Descending Philadelphia TRACON
Sun 08:52:53 PM 40.0833 -75.4333 49° Northeast 191 220 4,100 48 Climbing Philadelphia TRACON
Sun 08:53:53 PM 40.1333 -75.3833 37° Northeast 186 214 4,100  Level Philadelphia TRACON
Sun 08:54:54 PM 40.1667 -75.3333 49° Northeast 171 197 4,100  Level Philadelphia TRACON
Sun 08:55:54 PM 40.1833 -75.2833 66° East 169 194 4,100  Level Philadelphia TRACON
Sun 08:56:54 PM 40.2167 -75.2500 37° Northeast 163 188 4,100  Level Philadelphia TRACON
Sun 08:57:54 PM 40.2500 -75.2000 49° Northeast 163 188 4,100  Level Philadelphia TRACON
Sun 08:58:54 PM 40.2833 -75.1667 37° Northeast 159 183 4,100  Level Philadelphia TRACON
Sun 08:59:54 PM 40.3167 -75.1167 49° Northeast 164 189 4,100  Level Philadelphia TRACON
Sun 09:00:57 PM 40.3500 -75.0667 49° Northeast 162 186 4,100  Level New York TRACON
Sun 09:02:03 PM 40.3833 -75.0333 37° Northeast 161 185 4,100  Level New York TRACON
Sun 09:02:57 PM 40.4000 -74.9833 66° East 164 189 4,100  Level New York TRACON
Sun 09:03:57 PM 40.4333 -74.9500 37° Northeast 162 186 4,100 -200 Level New York TRACON
Sun 09:04:57 PM 40.4667 -74.9000 49° Northeast 180 207 3,700 -450 Descending New York TRACON
Sun 09:05:57 PM 40.5000 -74.8500 49° Northeast 200 230 3,200 -350 Descending New York TRACON
Sun 09:06:57 PM 40.5500 -74.8000 37° Northeast 182 209 3,000 -105 Descending New York TRACON
Sun 09:07:51 PM 40.5667 -74.7500 66° East 158 182 3,000  Level New York TRACON
Sun 09:08:57 PM 40.6000 -74.7000 49° Northeast 158 182 3,000  Level New York TRACON
Sun 09:09:57 PM 40.5667 -74.7000 180° South 127 146 3,000 48 Level New York TRACON
Sun 09:11:03 PM 40.5333 -74.7333 217° Southwest 118 136 3,100 48 Climbing New York TRACON
Sun 09:12:03 PM 40.5167 -74.7667 237° Southwest 125 144 3,100  Level New York TRACON
Sun 09:13:03 PM 40.5167 -74.8000 270° West 148 170 3,100  Level New York TRACON
Sun 09:14:03 PM 40.5500 -74.7833 21° North 157 181 3,100  Level New York TRACON
Sun 09:15:03 PM 40.5833 -74.7500 37° Northeast 158 182 3,100  Level New York TRACON
Sun 09:16:03 PM 40.5833 -74.7000 90° East 174 200 3,100  Level New York TRACON
Sun 09:17:03 PM 40.5500 -74.7333 217° Southwest 118 136 3,100  Level New York TRACON
Sun 09:18:03 PM 40.5333 -74.7667 237° Southwest 120 138 3,100  Level New York TRACON
Sun 09:19:09 PM 40.5000 -74.8000 217° Southwest 135 155 3,100  Level New York TRACON
Sun 09:20:09 PM 40.5333 -74.8167 339° North 164 189 3,100  Level New York TRACON
Sun 09:21:09 PM 40.5667 -74.7667 49° Northeast 161 185 3,100  Level New York TRACON
Sun 09:22:09 PM 40.5833 -74.7167 66° East 161 185 3,100  Level New York TRACON
Sun 09:23:09 PM 40.5667 -74.7167 180° South 136 157 3,100  Level New York TRACON
Sun 09:24:09 PM 40.5333 -74.7500 217° Southwest 124 143 3,100  Level New York TRACON
Sun 09:25:09 PM 40.5167 -74.7833 237° Southwest 127 146 3,100  Level New York TRACON
Sun 09:26:09 PM 40.5167 -74.8167 270° West 154 177 3,100  Level New York TRACON
Sun 09:27:03 PM 40.5500 -74.7833 37° Northeast 144 166 3,100  Level New York TRACON
Sun 09:28:03 PM 40.5833 -74.7667 21° North 139 160 3,100  Level New York TRACON
Sun 09:29:03 PM 40.6333 -74.7667 360° North 145 167 3,100  Level New York TRACON
Sun 09:30:03 PM 40.6667 -74.7500 21° North 147 169 3,100  Level New York TRACON

Login

Don't have an account? Register now (free) for customized features, flight alerts, and more!